createdAt,value
2022-08-22T00:03:35.286Z,84
2022-08-22T00:06:19.719Z,84
2022-08-22T00:08:51.728Z,84
2022-08-22T00:11:27.562Z,84
2022-08-22T00:14:05.026Z,84
2022-08-22T00:16:36.613Z,85
2022-08-22T00:19:09.221Z,85
2022-08-22T00:21:43.172Z,85
2022-08-22T00:24:15.040Z,85
2022-08-22T00:26:47.707Z,85
2022-08-22T00:29:25.962Z,85
2022-08-22T00:32:01.618Z,86
2022-08-22T00:34:33.416Z,86
2022-08-22T00:37:07.619Z,86
2022-08-22T00:39:39.806Z,86
2022-08-22T00:42:12.519Z,86
2022-08-22T00:44:48.188Z,86
2022-08-22T00:47:20.335Z,86
2022-08-22T00:49:52.997Z,86
2022-08-22T00:52:25.720Z,87
2022-08-22T00:54:58.444Z,86
2022-08-22T00:57:31.202Z,87
2022-08-22T01:00:03.902Z,87
2022-08-22T01:02:36.490Z,87
2022-08-22T01:05:08.768Z,87
2022-08-22T01:07:41.449Z,87
2022-08-22T01:10:14.209Z,87
2022-08-22T01:12:46.995Z,87
2022-08-22T01:15:18.988Z,87
2022-08-22T01:17:50.979Z,87
2022-08-22T01:20:24.738Z,87
2022-08-22T01:22:56.599Z,87
2022-08-22T01:25:28.622Z,87
2022-08-22T01:28:03.180Z,87
2022-08-22T01:30:37.460Z,87
2022-08-22T01:33:08.558Z,87
2022-08-22T01:35:40.397Z,87
2022-08-22T01:38:12.706Z,87
2022-08-22T01:40:55.206Z,87
2022-08-22T01:44:01.724Z,87
2022-08-22T01:46:31.764Z,88
2022-08-22T01:49:04.113Z,87
2022-08-22T01:51:36.507Z,87
2022-08-22T01:54:08.716Z,87
2022-08-22T01:56:40.877Z,87
2022-08-22T01:59:13.323Z,87
2022-08-22T02:01:46.046Z,87
2022-08-22T02:04:18.723Z,87
2022-08-22T02:06:51.470Z,88
2022-08-22T02:09:24.308Z,88
2022-08-22T02:11:57.144Z,88
2022-08-22T02:14:29.367Z,88
2022-08-22T02:17:02.186Z,88
2022-08-22T02:19:34.938Z,88
2022-08-22T02:22:08.292Z,88
2022-08-22T02:24:40.908Z,89
2022-08-22T02:27:13.632Z,89
2022-08-22T02:29:46.262Z,90
2022-08-22T02:32:18.490Z,89
2022-08-22T02:34:51.274Z,89
2022-08-22T02:37:24.546Z,89
2022-08-22T02:39:57.866Z,89
2022-08-22T02:42:29.842Z,89
2022-08-22T02:45:03.178Z,89
2022-08-22T02:47:37.104Z,89
2022-08-22T02:50:21.546Z,89
2022-08-22T02:52:53.506Z,89
2022-08-22T02:55:25.616Z,88
2022-08-22T02:58:01.316Z,88
2022-08-22T03:00:34.301Z,89
2022-08-22T03:03:05.956Z,89
2022-08-22T03:05:38.320Z,89
2022-08-22T03:08:13.869Z,89
2022-08-22T03:10:45.570Z,89
2022-08-22T03:13:21.299Z,89
2022-08-22T03:15:54.268Z,89
2022-08-22T03:18:27.014Z,89
2022-08-22T03:20:59.598Z,89
2022-08-22T03:23:32.486Z,89
2022-08-22T03:26:14.468Z,89
2022-08-22T03:29:01.256Z,89
2022-08-22T03:31:31.610Z,89
2022-08-22T03:34:04.426Z,89
2022-08-22T03:36:36.892Z,89
2022-08-22T03:39:18.226Z,89
2022-08-22T03:41:49.221Z,89
2022-08-22T03:44:22.250Z,89
2022-08-22T03:46:54.620Z,89
2022-08-22T03:49:27.267Z,89
2022-08-22T03:51:59.846Z,89
2022-08-22T03:54:32.542Z,89
2022-08-22T03:57:05.180Z,89
2022-08-22T03:59:43.324Z,89
2022-08-22T04:02:45.045Z,90
2022-08-22T04:05:21.102Z,90
2022-08-22T04:07:53.114Z,90
2022-08-22T04:10:25.940Z,90
2022-08-22T04:12:58.354Z,90
2022-08-22T04:15:30.810Z,90
2022-08-22T04:18:04.648Z,90
2022-08-22T04:20:37.426Z,90
2022-08-22T04:23:10.309Z,90
2022-08-22T04:25:42.819Z,90
2022-08-22T04:28:15.954Z,90
2022-08-22T04:30:48.822Z,89
2022-08-22T04:33:21.462Z,89
2022-08-22T04:35:54.083Z,89
2022-08-22T04:38:27.138Z,89
2022-08-22T04:41:05.334Z,89
2022-08-22T04:43:37.710Z,89
2022-08-22T04:46:11.970Z,89
2022-08-22T04:48:44.429Z,89
2022-08-22T04:51:18.202Z,89
2022-08-22T04:53:50.228Z,89
2022-08-22T04:56:22.867Z,88
2022-08-22T04:58:56.756Z,88
2022-08-22T05:01:29.429Z,89
2022-08-22T05:04:01.730Z,88
2022-08-22T05:06:32.071Z,88
2022-08-22T05:09:03.971Z,88
2022-08-22T05:11:36.062Z,88
2022-08-22T05:14:07.469Z,89
2022-08-22T05:16:40.277Z,89
2022-08-22T05:19:32.665Z,89
2022-08-22T05:22:03.134Z,89
2022-08-22T05:24:36.184Z,89
2022-08-22T05:27:08.218Z,90
2022-08-22T05:29:40.761Z,90
2022-08-22T05:32:12.999Z,89
2022-08-22T05:34:45.572Z,89
2022-08-22T05:37:17.898Z,89
2022-08-22T05:39:51.509Z,89
2022-08-22T05:42:24.240Z,89
2022-08-22T05:44:57.001Z,89
2022-08-22T05:47:29.671Z,89
2022-08-22T05:50:02.193Z,89
2022-08-22T05:52:35.062Z,88
2022-08-22T05:55:07.610Z,88
2022-08-22T05:57:40.719Z,88
2022-08-22T06:00:13.331Z,88
2022-08-22T06:02:45.637Z,88
2022-08-22T06:05:18.409Z,88
2022-08-22T06:07:52.169Z,88
2022-08-22T06:10:24.921Z,88
2022-08-22T06:13:00.469Z,89
2022-08-22T06:15:32.768Z,89
2022-08-22T06:18:07.402Z,89
2022-08-22T06:20:40.174Z,88
2022-08-22T06:23:16.568Z,88
2022-08-22T06:25:54.138Z,88
2022-08-22T06:28:31.343Z,88
2022-08-22T06:31:02.502Z,88
2022-08-22T06:33:37.142Z,88
2022-08-22T06:36:09.538Z,88
2022-08-22T06:38:42.171Z,88
2022-08-22T06:41:14.568Z,88
2022-08-22T06:43:47.355Z,88
2022-08-22T06:46:19.404Z,88
2022-08-22T06:48:51.824Z,88
2022-08-22T06:51:25.408Z,88
2022-08-22T06:53:57.190Z,87
2022-08-22T06:56:30.666Z,87
2022-08-22T06:59:03.858Z,87
2022-08-22T07:01:36.966Z,87
2022-08-22T07:04:09.566Z,87
2022-08-22T07:06:42.802Z,86
2022-08-22T07:09:15.326Z,87
2022-08-22T07:11:48.043Z,87
2022-08-22T07:14:21.371Z,87
2022-08-22T07:16:56.166Z,87
2022-08-22T07:19:26.221Z,87
2022-08-22T07:21:56.720Z,86
2022-08-22T07:24:28.975Z,86
2022-08-22T07:27:05.126Z,86
2022-08-22T07:29:39.182Z,86
2022-08-22T07:32:15.985Z,85
2022-08-22T07:34:47.334Z,85
2022-08-22T07:37:19.838Z,85
2022-08-22T07:39:55.261Z,84
2022-08-22T07:42:31.834Z,84
2022-08-22T07:45:02.875Z,83
2022-08-22T07:47:34.088Z,84
2022-08-22T07:50:06.867Z,84
2022-08-22T07:52:39.408Z,84
2022-08-22T07:55:13.012Z,84
2022-08-22T07:57:46.165Z,85
2022-08-22T08:00:18.585Z,84
2022-08-22T08:02:51.298Z,85
2022-08-22T08:05:23.743Z,85
2022-08-22T08:07:56.411Z,84
2022-08-22T08:10:28.809Z,84
2022-08-22T08:13:03.698Z,83
2022-08-22T08:15:35.140Z,83
2022-08-22T08:18:08.386Z,82
2022-08-22T08:20:40.677Z,82
2022-08-22T08:23:13.481Z,82
2022-08-22T08:25:54.598Z,82
2022-08-22T08:28:27.173Z,82
2022-08-22T08:31:00.019Z,82
2022-08-22T08:33:32.669Z,82
2022-08-22T08:36:05.423Z,81
2022-08-22T08:38:38.541Z,82
2022-08-22T08:41:14.260Z,82
2022-08-22T08:43:46.032Z,81
2022-08-22T08:46:17.573Z,81
2022-08-22T08:48:54.448Z,81
2022-08-22T08:51:27.761Z,82
2022-08-22T08:54:02.260Z,82
2022-08-22T08:56:34.325Z,82
2022-08-22T08:59:12.085Z,81
2022-08-22T09:01:44.208Z,81
2022-08-22T09:04:16.589Z,80
2022-08-22T09:43:02.149Z,75
2022-08-22T09:45:36.751Z,75
2022-08-22T09:48:09.241Z,76
2022-08-22T09:50:46.285Z,76
2022-08-22T09:53:20.826Z,76
2022-08-22T09:55:52.936Z,76
2022-08-22T09:58:43.651Z,77
2022-08-22T10:01:14.360Z,77
2022-08-22T10:03:50.899Z,77
2022-08-22T10:06:25.407Z,77
2022-08-22T10:08:59.147Z,77
2022-08-22T10:11:31.416Z,77
2022-08-22T10:14:05.635Z,77
2022-08-22T10:16:40.709Z,76
2022-08-22T10:19:12.812Z,76
2022-08-22T10:21:45.219Z,77
2022-08-22T10:24:27.753Z,77
2022-08-22T10:27:03.460Z,76
2022-08-22T10:29:36.351Z,76
2022-08-22T10:32:16.718Z,76
2022-08-22T10:34:49.296Z,75
2022-08-22T10:37:24.693Z,75
2022-08-22T10:39:57.102Z,75
2022-08-22T10:42:37.143Z,75
2022-08-22T10:45:09.433Z,75
2022-08-22T10:47:42.318Z,74
2022-08-22T10:50:21.195Z,73
2022-08-22T10:52:52.157Z,73
2022-08-22T10:55:28.736Z,73
2022-08-22T10:58:04.439Z,74
2022-08-22T11:00:35.918Z,73
2022-08-22T11:03:25.324Z,73
2022-08-22T11:05:56.723Z,73
2022-08-22T11:08:34.594Z,74
2022-08-22T11:11:04.885Z,74
2022-08-22T11:13:43.340Z,74
2022-08-22T11:16:14.388Z,73
2022-08-22T11:19:16.319Z,74
2022-08-22T11:21:46.797Z,75
2022-08-22T11:25:05.004Z,74
2022-08-22T11:27:41.629Z,73
2022-08-22T11:30:19.718Z,73
2022-08-22T11:33:01.788Z,73
2022-08-22T11:35:35.915Z,73
2022-08-22T11:38:11.973Z,73
2022-08-22T11:40:44.186Z,73
2022-08-22T11:43:20.615Z,74
2022-08-22T11:45:51.901Z,73
2022-08-22T11:48:25.736Z,73
2022-08-22T11:50:56.294Z,72
2022-08-22T11:53:33.909Z,72
2022-08-22T11:56:10.567Z,71
2022-08-22T11:58:42.375Z,71
2022-08-22T12:01:19.588Z,71
2022-08-22T12:03:59.460Z,71
2022-08-22T12:06:38.322Z,71
2022-08-22T12:09:11.527Z,71
2022-08-22T12:11:46.135Z,71
2022-08-22T12:14:19.771Z,71
2022-08-22T12:16:57.348Z,70
2022-08-22T12:19:33.655Z,70
2022-08-22T12:22:08.341Z,69
2022-08-22T12:24:44.226Z,69
2022-08-22T12:27:30.455Z,67
2022-08-22T12:30:00.984Z,68
2022-08-22T12:32:34.699Z,67
2022-08-22T12:35:19.863Z,68
2022-08-22T12:38:33.674Z,68
2022-08-22T12:41:09.461Z,67
2022-08-22T12:43:43.740Z,68
2022-08-22T12:46:15.700Z,68
2022-08-22T12:48:48.865Z,67
2022-08-22T12:51:21.453Z,67
2022-08-22T12:53:54.298Z,64
2022-08-22T12:56:29.502Z,64
2022-08-22T12:59:00.914Z,65
2022-08-22T13:01:44.675Z,68
2022-08-22T13:04:34.938Z,67
2022-08-22T13:07:07.503Z,67
2022-08-22T13:09:37.952Z,67
2022-08-22T13:12:10.972Z,67
2022-08-22T13:14:43.106Z,64
2022-08-22T13:17:27.466Z,66
2022-08-22T13:20:00.321Z,66
2022-08-22T13:22:32.900Z,63
2022-08-22T13:25:09.279Z,63
2022-08-22T13:27:52.098Z,64
2022-08-22T13:30:24.719Z,65
2022-08-22T13:33:00.604Z,63
2022-08-22T13:35:33.256Z,64
2022-08-22T13:38:05.666Z,64
2022-08-22T13:40:46.192Z,65
2022-08-22T13:43:15.964Z,63
2022-08-22T13:45:49.372Z,65
2022-08-22T13:48:29.701Z,64
2022-08-22T13:51:08.882Z,65
2022-08-22T13:54:02.530Z,64
2022-08-22T13:56:52.910Z,65
2022-08-22T14:00:07.112Z,65
2022-08-22T14:02:38.056Z,65
2022-08-22T14:05:21.465Z,64
2022-08-22T14:08:12.633Z,64
2022-08-22T14:10:57.797Z,65
2022-08-22T14:13:48.172Z,64
2022-08-22T14:16:21.160Z,62
2022-08-22T14:18:52.482Z,64
2022-08-22T14:21:25.268Z,64
2022-08-22T14:23:58.886Z,64
2022-08-22T14:26:48.533Z,65
2022-08-22T14:29:19.552Z,65
2022-08-22T14:31:52.215Z,64
2022-08-22T14:34:25.022Z,64
2022-08-22T14:36:57.726Z,64
2022-08-22T14:39:31.331Z,64
2022-08-22T14:42:13.784Z,62
2022-08-22T14:44:45.961Z,64
2022-08-22T14:48:41.290Z,64
2022-08-22T14:51:11.884Z,66
2022-08-22T14:53:45.150Z,65
2022-08-22T14:56:18.852Z,67
2022-08-22T14:58:50.789Z,67
2022-08-22T15:01:32.658Z,68
2022-08-22T15:04:04.038Z,67
2022-08-22T15:06:37.666Z,66
2022-08-22T15:09:09.605Z,66
2022-08-22T15:11:49.836Z,66
2022-08-22T15:14:25.304Z,68
2022-08-22T15:16:59.200Z,67
2022-08-22T15:19:35.600Z,67
2022-08-22T15:22:14.901Z,66
2022-08-22T15:25:16.342Z,66
2022-08-22T15:27:55.402Z,66
2022-08-22T15:30:27.745Z,66
2022-08-22T15:33:06.340Z,66
2022-08-22T15:35:40.442Z,66
2022-08-22T15:38:16.778Z,67
2022-08-22T15:40:47.782Z,67
2022-08-22T15:43:20.619Z,67
2022-08-22T15:45:54.082Z,67
2022-08-22T15:48:26.596Z,69
2022-08-22T15:50:58.833Z,68
2022-08-22T15:53:34.830Z,68
2022-08-22T15:56:06.928Z,70
2022-08-22T15:58:49.519Z,70
2022-08-22T16:01:23.148Z,69
2022-08-22T16:03:54.480Z,69
2022-08-22T16:06:27.035Z,69
2022-08-22T16:08:59.289Z,70
2022-08-22T16:11:34.563Z,69
2022-08-22T16:14:09.883Z,70
2022-08-22T16:16:40.430Z,69
2022-08-22T16:19:12.618Z,69
2022-08-22T16:21:45.013Z,70
2022-08-22T16:24:17.607Z,70
2022-08-22T16:26:50.108Z,70
2022-08-22T16:29:22.787Z,69
2022-08-22T16:31:58.252Z,70
2022-08-22T16:34:31.900Z,70
2022-08-22T16:37:04.446Z,70
2022-08-22T16:39:37.568Z,71
2022-08-22T16:42:10.337Z,71
2022-08-22T16:44:43.866Z,71
2022-08-22T16:47:16.859Z,72
2022-08-22T16:49:49.266Z,71
2022-08-22T16:52:21.997Z,71
2022-08-22T16:54:54.623Z,72
2022-08-22T16:57:27.517Z,72
2022-08-22T17:00:00.314Z,72
2022-08-22T17:02:32.815Z,72
2022-08-22T17:05:05.451Z,72
2022-08-22T17:07:38.087Z,72
2022-08-22T17:10:13.161Z,72
2022-08-22T17:12:44.619Z,71
2022-08-22T17:15:17.641Z,72
2022-08-22T17:17:50.837Z,72
2022-08-22T17:20:23.498Z,73
2022-08-22T17:22:56.512Z,73
2022-08-22T17:25:29.283Z,74
2022-08-22T17:28:05.599Z,73
2022-08-22T17:30:36.805Z,74
2022-08-22T17:33:09.305Z,73
2022-08-22T17:35:42.000Z,74
2022-08-22T17:38:14.791Z,73
2022-08-22T17:40:47.618Z,73
2022-08-22T17:43:19.753Z,74
2022-08-22T17:45:52.673Z,74
2022-08-22T17:48:25.398Z,74
2022-08-22T17:50:58.281Z,74
2022-08-22T17:53:30.767Z,74
2022-08-22T17:56:03.351Z,74
2022-08-22T17:58:45.039Z,74
2022-08-22T18:01:17.151Z,74
2022-08-22T18:03:50.363Z,74
2022-08-22T18:06:23.363Z,75
2022-08-22T18:09:27.266Z,75
2022-08-22T18:11:58.425Z,76
2022-08-22T18:14:31.459Z,76
2022-08-22T18:17:04.013Z,75
2022-08-22T18:19:37.478Z,75
2022-08-22T18:22:11.836Z,75
2022-08-22T18:24:44.516Z,75
2022-08-22T18:27:36.211Z,76
2022-08-22T18:30:06.710Z,76
2022-08-22T18:32:44.990Z,76
2022-08-22T18:35:22.304Z,77
2022-08-22T18:37:55.070Z,77
2022-08-22T18:40:28.822Z,77
2022-08-22T18:43:02.473Z,77
2022-08-22T18:45:45.338Z,78
2022-08-22T18:48:16.241Z,78
2022-08-22T18:50:48.954Z,77
2022-08-22T18:53:21.608Z,78
2022-08-22T18:55:54.322Z,77
2022-08-22T18:58:26.884Z,78
2022-08-22T19:01:02.284Z,79
2022-08-22T19:03:36.757Z,79
2022-08-22T19:06:08.248Z,79
2022-08-22T19:08:42.400Z,79
2022-08-22T19:11:14.018Z,80
2022-08-22T19:13:46.750Z,79
2022-08-22T19:16:19.246Z,80
2022-08-22T19:18:52.325Z,80
2022-08-22T19:21:25.006Z,79
2022-08-22T19:23:57.651Z,80
2022-08-22T19:26:50.044Z,80
2022-08-22T19:29:22.079Z,80
2022-08-22T19:31:55.571Z,80
2022-08-22T19:34:28.111Z,80
2022-08-22T19:37:01.300Z,81
2022-08-22T19:39:34.354Z,81
2022-08-22T19:42:14.870Z,81
2022-08-22T19:44:45.561Z,81
2022-08-22T19:47:18.162Z,81
2022-08-22T19:49:54.047Z,81
2022-08-22T19:52:25.342Z,81
2022-08-22T19:54:57.931Z,81
2022-08-22T19:57:30.471Z,81
2022-08-22T20:00:02.904Z,81
2022-08-22T20:02:35.741Z,81
2022-08-22T20:05:08.042Z,81
2022-08-22T20:07:40.824Z,81
2022-08-22T20:10:16.323Z,81
2022-08-22T20:12:49.303Z,82
2022-08-22T20:15:22.703Z,82
2022-08-22T20:19:09.932Z,82
2022-08-22T20:21:42.644Z,82
2022-08-22T20:24:16.029Z,82
2022-08-22T20:27:17.272Z,82
2022-08-22T20:29:47.579Z,82
2022-08-22T20:32:19.881Z,82
2022-08-22T20:34:53.642Z,82
2022-08-22T20:38:07.851Z,82
2022-08-22T20:41:01.212Z,81
2022-08-22T20:43:33.355Z,81
2022-08-22T20:46:05.920Z,81
2022-08-22T20:48:40.018Z,81
2022-08-22T20:51:12.187Z,81
2022-08-22T20:53:50.148Z,82
2022-08-22T20:56:21.267Z,81
2022-08-22T20:58:53.328Z,81
2022-08-22T21:01:29.466Z,82
2022-08-22T21:04:00.995Z,81
2022-08-22T21:06:33.013Z,82
2022-08-22T21:09:06.401Z,82
2022-08-22T21:11:38.899Z,82
2022-08-22T21:14:11.620Z,83
2022-08-22T21:16:44.220Z,83
2022-08-22T21:19:16.567Z,83
2022-08-22T21:21:48.282Z,83
2022-08-22T21:24:20.239Z,82
2022-08-22T21:26:52.176Z,82
2022-08-22T21:29:24.557Z,82
2022-08-22T21:32:05.545Z,82
2022-08-22T21:34:36.096Z,82
2022-08-22T21:37:08.606Z,82
2022-08-22T21:39:41.758Z,83
2022-08-22T21:42:13.727Z,83
2022-08-22T21:44:46.310Z,83
2022-08-22T21:47:32.269Z,83
2022-08-22T21:50:02.835Z,83
2022-08-22T21:52:35.201Z,83
2022-08-22T21:55:07.730Z,83
2022-08-22T21:57:43.556Z,82
2022-08-22T22:00:17.969Z,83
2022-08-22T22:02:50.734Z,83
2022-08-22T22:05:23.335Z,84
2022-08-22T22:07:56.276Z,84
2022-08-22T22:10:28.688Z,84
2022-08-22T22:13:01.774Z,84
2022-08-22T22:15:36.472Z,84
2022-08-22T22:18:07.349Z,84
2022-08-22T22:20:39.657Z,83
2022-08-22T22:23:11.938Z,83
2022-08-22T22:25:44.174Z,84
2022-08-22T22:28:16.574Z,84
2022-08-22T22:30:48.533Z,83
2022-08-22T22:33:20.740Z,84
2022-08-22T22:35:53.539Z,84
2022-08-22T22:38:25.998Z,84
2022-08-22T22:41:01.419Z,84
2022-08-22T22:43:36.699Z,84
2022-08-22T22:46:07.861Z,83
2022-08-22T22:48:40.310Z,83
2022-08-22T22:51:15.850Z,83
2022-08-22T22:53:46.329Z,83
2022-08-22T22:56:22.184Z,83
2022-08-22T22:59:15.089Z,84
2022-08-22T23:01:45.929Z,84
2022-08-22T23:04:18.927Z,84
2022-08-22T23:06:50.968Z,85
2022-08-22T23:09:45.561Z,85
2022-08-22T23:12:16.927Z,85
2022-08-22T23:14:49.192Z,85
2022-08-22T23:17:21.489Z,85
2022-08-22T23:19:54.085Z,85
2022-08-22T23:22:27.333Z,84
2022-08-22T23:24:59.707Z,84
2022-08-22T23:27:32.277Z,84
2022-08-22T23:30:04.854Z,84
2022-08-22T23:32:36.984Z,83
2022-08-22T23:35:09.829Z,83
2022-08-22T23:37:42.595Z,83
2022-08-22T23:40:16.105Z,83
2022-08-22T23:42:48.185Z,83
2022-08-22T23:45:21.584Z,83
2022-08-22T23:47:56.210Z,83
2022-08-22T23:50:28.387Z,83
2022-08-22T23:53:00.448Z,83
2022-08-22T23:55:33.269Z,84
2022-08-22T23:58:05.873Z,85
